Latest Weather Observations for Fort Denison

IDN60801

Issued at 10:32 am EDT Tuesday 17 October 2017 (issued every 30 minutes, with the page automatically refreshed every 10 minutes)

About weather observations | Map of weather stations | Latest weather observations for NSW | Other Formats
Station Details ID: 066022 Name: FORT DENISON Lat: -33.86 Lon: 151.23 Height: 5.0 m
Data from the previous 72 hours. | See also: Recent months for locations in New South Wales
Date/Time
EDT
Temp
°C
App
Temp
°C
Dew
Point
°C
Rel
Hum
%
Delta-T
°C
Wind Press
QNH
hPa
Press
MSL
hPa
Rain since
9am
mm
Dir  Spd
km/h
Gust
km/h
Spd
kts
Gust
kts
17/10:30am - - - - - NE 22 30 12 16 - - -
17/10:00am - - - - - NE 22 33 12 18 - - -
17/09:30am - - - - - NE 19 28 10 15 - - -
17/09:00am - - - - - NE 11 30 6 16 - - -
17/08:30am - - - - - W 6 7 3 4 - - -
17/08:00am - - - - - WNW 6 7 3 4 - - -
17/07:30am - - - - - W 9 11 5 6 - - -
17/07:00am - - - - - W 11 13 6 7 - - -
17/06:30am - - - - - WNW 9 11 5 6 - - -
17/06:00am - - - - - NW 4 6 2 3 - - -
17/05:30am - - - - - WNW 7 9 4 5 - - -
17/05:00am - - - - - W 7 9 4 5 - - -
17/04:30am - - - - - W 9 11 5 6 - - -
17/04:00am - - - - - NNW 7 9 4 5 - - -
17/03:30am - - - - - NNW 6 7 3 4 - - -
17/03:00am - - - - - NW 4 4 2 2 - - -
17/02:30am - - - - - WNW 4 7 2 4 - - -
17/02:00am - - - - - WNW 7 11 4 6 - - -
17/01:30am - - - - - W 7 7 4 4 - - -
17/01:00am - - - - - WNW 9 11 5 6 - - -
17/12:30am - - - - - N 4 6 2 3 - - -
17/12:00am - - - - - NE 6 7 3 4 - - -
 
Date/Time
EDT
Temp
°C
App
Temp
°C
Dew
Point
°C
Rel
Hum
%
Delta-T
°C
Wind Press
QNH
hPa
Press
MSL
hPa
Rain since
9am
mm
Dir  Spd
km/h
Gust
km/h
Spd
kts
Gust
kts
16/11:30pm - - - - - ENE 7 11 4 6 - - -
16/11:00pm - - - - - ENE 7 11 4 6 - - -
16/10:30pm - - - - - ENE 13 17 7 9 - - -
16/10:00pm - - - - - NE 7 13 4 7 - - -
16/09:30pm - - - - - NE 7 13 4 7 - - -
16/09:00pm - - - - - ENE 15 22 8 12 - - -
16/08:30pm - - - - - NE 13 19 7 10 - - -
16/08:00pm - - - - - NE 13 19 7 10 - - -
16/07:30pm - - - - - ENE 20 26 11 14 - - -
16/07:00pm - - - - - ENE 17 20 9 11 - - -
16/06:30pm - - - - - ENE 19 26 10 14 - - -
16/06:00pm - - - - - NE 15 22 8 12 - - -
16/05:30pm - - - - - NE 17 26 9 14 - - -
16/05:00pm - - - - - E 22 30 12 16 - - -
16/04:30pm - - - - - E 20 24 11 13 - - -
16/04:00pm - - - - - E 19 24 10 13 - - -
16/03:30pm - - - - - E 20 26 11 14 - - -
16/03:00pm - - - - - E 20 26 11 14 - - -
16/02:30pm - - - - - E 20 28 11 15 - - -
16/02:00pm - - - - - E 17 24 9 13 - - -
16/01:30pm - - - - - E 19 24 10 13 - - -
16/01:00pm - - - - - E 19 22 10 12 - - -
16/12:30pm - - - - - ENE 17 26 9 14 - - -
16/12:00pm - - - - - E 17 22 9 12 - - -
16/11:30am - - - - - E 17 20 9 11 - - -
16/11:00am - - - - - E 13 19 7 10 - - -
16/10:30am - - - - - E 13 17 7 9 - - -
16/10:00am - - - - - ENE 11 17 6 9 - - -
16/09:30am - - - - - E 11 15 6 8 - - -
16/09:00am - - - - - E 13 15 7 8 - - -
16/08:30am - - - - - E 6 7 3 4 - - -
16/08:00am - - - - - W 7 9 4 5 - - -
16/07:30am - - - - - W 9 11 5 6 - - -
16/07:00am - - - - - W 9 11 5 6 - - -
16/06:30am - - - - - WNW 9 11 5 6 - - -
16/06:00am - - - - - W 7 9 4 5 - - -
16/05:30am - - - - - W 7 7 4 4 - - -
16/05:00am - - - - - NW 4 6 2 3 - - -
16/04:30am - - - - - NW 4 4 2 2 - - -
16/04:00am - - - - - NNE 2 6 1 3 - - -
16/03:30am - - - - - E 7 9 4 5 - - -
16/03:00am - - - - - E 7 11 4 6 - - -
16/02:30am - - - - - E 11 13 6 7 - - -
16/02:00am - - - - - E 11 13 6 7 - - -
16/01:30am - - - - - E 13 15 7 8 - - -
16/01:00am - - - - - E 11 17 6 9 - - -
16/12:30am - - - - - E 11 15 6 8 - - -
16/12:00am - - - - - E 7 11 4 6 - - -
 
Date/Time
EDT
Temp
°C
App
Temp
°C
Dew
Point
°C
Rel
Hum
%
Delta-T
°C
Wind Press
QNH
hPa
Press
MSL
hPa
Rain since
9am
mm
Dir  Spd
km/h
Gust
km/h
Spd
kts
Gust
kts
15/11:30pm - - - - - E 11 13 6 7 - - -
15/11:00pm - - - - - E 11 13 6 7 - - -
15/10:30pm - - - - - E 13 17 7 9 - - -
15/10:00pm - - - - - E 13 19 7 10 - - -
15/09:30pm - - - - - E 17 19 9 10 - - -
15/09:00pm - - - - - E 13 19 7 10 - - -
15/08:30pm - - - - - ESE 15 19 8 10 - - -
15/08:00pm - - - - - E 17 19 9 10 - - -
15/07:30pm - - - - - E 17 19 9 10 - - -
15/07:00pm - - - - - E 15 17 8 9 - - -
15/06:30pm - - - - - E 11 15 6 8 - - -
15/06:00pm - - - - - E 17 20 9 11 - - -
15/05:30pm - - - - - E 15 20 8 11 - - -
15/05:00pm - - - - - E 17 20 9 11 - - -
15/04:30pm - - - - - E 15 19 8 10 - - -
15/04:00pm - - - - - E 17 22 9 12 - - -
15/03:30pm - - - - - ESE 17 22 9 12 - - -
15/03:00pm - - - - - ESE 17 20 9 11 - - -
15/02:30pm - - - - - ESE 19 24 10 13 - - -
15/02:00pm - - - - - E 19 22 10 12 - - -
15/01:30pm - - - - - ESE 19 24 10 13 - - -
15/01:00pm - - - - - ESE 17 22 9 12 - - -
15/12:30pm - - - - - ESE 15 24 8 13 - - -
15/12:00pm - - - - - ESE 20 26 11 14 - - -
15/11:30am - - - - - ESE 19 26 10 14 - - -
15/11:00am - - - - - ESE 20 26 11 14 - - -
15/10:30am - - - - - ESE 17 22 9 12 - - -
15/10:00am - - - - - ESE 15 24 8 13 - - -
15/09:30am - - - - - ESE 15 20 8 11 - - -
15/09:00am - - - - - SE 17 22 9 12 - - -
15/08:30am - - - - - ESE 13 20 7 11 - - -
15/08:00am - - - - - SE 17 22 9 12 - - -
15/07:30am - - - - - ESE 17 20 9 11 - - -
15/07:00am - - - - - ESE 19 20 10 11 - - -
15/06:30am - - - - - ESE 19 24 10 13 - - -
15/06:00am - - - - - ESE 17 24 9 13 - - -
15/05:30am - - - - - ESE 17 22 9 12 - - -
15/05:00am - - - - - ESE 20 26 11 14 - - -
15/04:30am - - - - - ESE 19 22 10 12 - - -
15/04:00am - - - - - ESE 20 28 11 15 - - -
15/03:30am - - - - - ESE 17 28 9 15 - - -
15/03:00am - - - - - ESE 17 20 9 11 - - -
15/02:30am - - - - - SE 13 19 7 10 - - -
15/02:00am - - - - - ESE 19 24 10 13 - - -
15/01:30am - - - - - ESE 19 22 10 12 - - -
15/01:00am - - - - - ESE 19 24 10 13 - - -
15/12:30am - - - - - ESE 17 20 9 11 - - -
15/12:00am - - - - - SE 11 17 6 9 - - -
 
Date/Time
EDT
Temp
°C
App
Temp
°C
Dew
Point
°C
Rel
Hum
%
Delta-T
°C
Wind Press
QNH
hPa
Press
MSL
hPa
Rain since
9am
mm
Dir  Spd
km/h
Gust
km/h
Spd
kts
Gust
kts
14/11:30pm - - - - - ESE 13 19 7 10 - - -
14/11:00pm - - - - - ESE 13 17 7 9 - - -
14/10:30pm - - - - - SE 11 19 6 10 - - -
14/10:00pm - - - - - ESE 19 24 10 13 - - -
14/09:30pm - - - - - ESE 19 26 10 14 - - -
14/09:00pm - - - - - SE 11 20 6 11 - - -
14/08:30pm - - - - - SSE 13 19 7 10 - - -
14/08:00pm - - - - - S 13 19 7 10 - - -
14/07:30pm - - - - - SSE 17 22 9 12 - - -
14/07:00pm - - - - - SSE 17 26 9 14 - - -
14/06:30pm - - - - - ESE 17 24 9 13 - - -
14/06:00pm - - - - - ESE 24 30 13 16 - - -
14/05:30pm - - - - - SSE 20 30 11 16 - - -
14/05:00pm - - - - - SE 20 28 11 15 - - -
14/04:30pm - - - - - SSE 19 28 10 15 - - -
14/04:00pm - - - - - SSE 20 33 11 18 - - -
14/03:30pm - - - - - SSE 24 37 13 20 - - -
14/03:00pm - - - - - SSE 26 37 14 20 - - -
14/02:30pm - - - - - SSE 26 35 14 19 - - -
14/02:00pm - - - - - SSE 30 39 16 21 - - -
14/01:30pm - - - - - SSE 26 35 14 19 - - -
14/01:00pm - - - - - SSE 28 39 15 21 - - -
14/12:30pm - - - - - SSE 28 41 15 22 - - -
14/12:00pm - - - - - SSE 30 46 16 25 - - -
14/11:57am - - - - - SSE 28 46 15 25 - - -
14/11:30am - - - - - SSE 30 46 16 25 - - -
14/11:27am - - - - - SSE 28 46 15 25 - - -
14/11:00am - - - - - SSE 24 33 13 18 - - -

Other Formats:

Comma delimited format used in spreadsheet applications
http://www.bom.gov.au/fwo/IDN60801/IDN60801.94769.axf

JavaScript Object Notation format (JSON) in row-major order
http://www.bom.gov.au/fwo/IDN60801/IDN60801.94769.json